sensor_id;sensor_type;location;lat;lon;timestamp;pressure;altitude;pressure_sealevel;temperature;humidity
55994;BME280;67425;52.126;20.638;2023-02-19T00:00:58;57676.25;;;-144.78;100.00
55994;BME280;67425;52.126;20.638;2023-02-19T00:03:25;57690.78;;;-144.78;100.00
55994;BME280;67425;52.126;20.638;2023-02-19T00:05:51;57674.19;;;-144.78;100.00
55994;BME280;67425;52.126;20.638;2023-02-19T00:08:16;57701.19;;;-144.78;100.00
55994;BME280;67425;52.126;20.638;2023-02-19T00:10:41;57678.34;;;-144.78;100.00
55994;BME280;67425;52.126;20.638;2023-02-19T00:13:07;57678.34;;;-144.78;100.00
55994;BME280;67425;52.126;20.638;2023-02-19T00:15:32;57682.50;;;-144.78;100.00
55994;BME280;67425;52.126;20.638;2023-02-19T00:17:58;57667.94;;;-144.78;100.00
55994;BME280;67425;52.126;20.638;2023-02-19T00:20:23;57692.88;;;-144.78;100.00
55994;BME280;67425;52.126;20.638;2023-02-19T00:22:49;57686.63;;;-144.78;100.00
55994;BME280;67425;52.126;20.638;2023-02-19T00:25:14;57692.88;;;-144.78;100.00
55994;BME280;67425;52.126;20.638;2023-02-19T00:27:40;57692.88;;;-144.78;100.00
55994;BME280;67425;52.126;20.638;2023-02-19T00:30:05;57678.34;;;-144.78;100.00
55994;BME280;67425;52.126;20.638;2023-02-19T00:32:31;57672.09;;;-144.78;100.00
55994;BME280;67425;52.126;20.638;2023-02-19T00:34:56;57657.56;;;-144.78;100.00
55994;BME280;67425;52.126;20.638;2023-02-19T00:37:21;57676.25;;;-144.78;100.00
55994;BME280;67425;52.126;20.638;2023-02-19T00:39:47;57705.34;;;-144.78;100.00
55994;BME280;67425;52.126;20.638;2023-02-19T00:42:12;57684.56;;;-144.78;100.00
55994;BME280;67425;52.126;20.638;2023-02-19T00:44:38;57676.25;;;-144.78;100.00
55994;BME280;67425;52.126;20.638;2023-02-19T00:47:03;57684.56;;;-144.78;100.00
55994;BME280;67425;52.126;20.638;2023-02-19T00:49:28;57670.03;;;-144.78;100.00
55994;BME280;67425;52.126;20.638;2023-02-19T00:51:54;57697.03;;;-144.78;100.00
55994;BME280;67425;52.126;20.638;2023-02-19T00:54:19;57667.94;;;-144.78;100.00
55994;BME280;67425;52.126;20.638;2023-02-19T00:56:47;57694.94;;;-144.78;99.75
55994;BME280;67425;52.126;20.638;2023-02-19T00:59:12;57678.34;;;-144.78;99.55
55994;BME280;67425;52.126;20.638;2023-02-19T01:01:38;57694.94;;;-144.78;100.00
55994;BME280;67425;52.126;20.638;2023-02-19T01:04:04;57674.19;;;-144.78;99.39
55994;BME280;67425;52.126;20.638;2023-02-19T01:06:30;57678.34;;;-144.78;97.85
55994;BME280;67425;52.126;20.638;2023-02-19T01:08:57;57694.94;;;-144.78;97.39
55994;BME280;67425;52.126;20.638;2023-02-19T01:11:22;57680.41;;;-144.78;97.39
55994;BME280;67425;52.126;20.638;2023-02-19T01:13:48;57663.78;;;-144.78;97.51
55994;BME280;67425;52.126;20.638;2023-02-19T01:16:19;57697.03;;;-144.78;97.61
55994;BME280;67425;52.126;20.638;2023-02-19T01:18:45;57692.88;;;-144.78;98.57
55994;BME280;67425;52.126;20.638;2023-02-19T01:21:17;57680.41;;;-144.78;98.92
55994;BME280;67425;52.126;20.638;2023-02-19T01:23:43;57670.03;;;-144.78;99.45
55994;BME280;67425;52.126;20.638;2023-02-19T01:26:13;57684.56;;;-144.78;98.93
55994;BME280;67425;52.126;20.638;2023-02-19T01:28:39;57686.63;;;-144.78;99.18
55994;BME280;67425;52.126;20.638;2023-02-19T01:31:07;57678.34;;;-144.78;98.95
55994;BME280;67425;52.126;20.638;2023-02-19T01:33:34;57692.88;;;-144.78;99.72
55994;BME280;67425;52.126;20.638;2023-02-19T01:36:02;57655.50;;;-144.78;99.68
55994;BME280;67425;52.126;20.638;2023-02-19T01:38:28;57663.78;;;-144.78;99.41
55994;BME280;67425;52.126;20.638;2023-02-19T01:41:03;57678.34;;;-144.78;99.28
55994;BME280;67425;52.126;20.638;2023-02-19T01:43:31;57676.25;;;-144.78;99.22
55994;BME280;67425;52.126;20.638;2023-02-19T01:45:57;57667.94;;;-144.78;99.21
55994;BME280;67425;52.126;20.638;2023-02-19T01:48:23;57705.34;;;-144.78;99.57
55994;BME280;67425;52.126;20.638;2023-02-19T01:53:24;57678.34;;;-144.78;99.01
55994;BME280;67425;52.126;20.638;2023-02-19T01:55:54;57674.19;;;-144.78;97.93
55994;BME280;67425;52.126;20.638;2023-02-19T01:58:21;57663.78;;;-144.78;98.94
55994;BME280;67425;52.126;20.638;2023-02-19T02:00:47;57701.19;;;-144.78;98.54
55994;BME280;67425;52.126;20.638;2023-02-19T02:03:12;57699.09;;;-144.78;99.54
55994;BME280;67425;52.126;20.638;2023-02-19T02:05:58;57678.34;;;-144.78;99.33
55994;BME280;67425;52.126;20.638;2023-02-19T02:08:26;57697.03;;;-144.78;99.64
55994;BME280;67425;52.126;20.638;2023-02-19T02:11:11;57692.88;;;-144.78;99.98
55994;BME280;67425;52.126;20.638;2023-02-19T02:13:38;57665.88;;;-144.78;98.98
55994;BME280;67425;52.126;20.638;2023-02-19T02:16:16;57680.41;;;-144.78;99.37
55994;BME280;67425;52.126;20.638;2023-02-19T02:24:36;57680.41;;;-144.78;98.93
55994;BME280;67425;52.126;20.638;2023-02-19T02:30:15;57665.88;;;-144.78;98.94
55994;BME280;67425;52.126;20.638;2023-02-19T02:35:41;57659.63;;;-144.78;97.03
55994;BME280;67425;52.126;20.638;2023-02-19T02:38:10;57682.50;;;-144.78;96.93
55994;BME280;67425;52.126;20.638;2023-02-19T02:40:38;57636.78;;;-144.78;96.41
55994;BME280;67425;52.126;20.638;2023-02-19T02:43:06;57690.78;;;-144.78;96.64
55994;BME280;67425;52.126;20.638;2023-02-19T02:45:32;57676.25;;;-144.78;96.79
55994;BME280;67425;52.126;20.638;2023-02-19T02:53:17;57676.25;;;-144.78;95.63
55994;BME280;67425;52.126;20.638;2023-02-19T02:56:02;57651.34;;;-144.78;96.39
55994;BME280;67425;52.126;20.638;2023-02-19T02:58:29;57678.34;;;-144.78;96.17
55994;BME280;67425;52.126;20.638;2023-02-19T03:00:59;57678.34;;;-144.78;95.75
55994;BME280;67425;52.126;20.638;2023-02-19T03:03:47;57665.88;;;-144.78;95.34
55994;BME280;67425;52.126;20.638;2023-02-19T03:06:16;57680.41;;;-144.78;95.86
55994;BME280;67425;52.126;20.638;2023-02-19T03:08:49;57667.94;;;-144.78;95.54
55994;BME280;67425;52.126;20.638;2023-02-19T03:11:16;57676.25;;;-144.78;95.67
55994;BME280;67425;52.126;20.638;2023-02-19T03:14:08;57694.94;;;-144.78;95.90
55994;BME280;67425;52.126;20.638;2023-02-19T03:16:58;57663.78;;;-144.78;95.62
55994;BME280;67425;52.126;20.638;2023-02-19T03:19:48;57688.72;;;-144.78;95.95
55994;BME280;67425;52.126;20.638;2023-02-19T03:22:17;57684.56;;;-144.78;94.71
55994;BME280;67425;52.126;20.638;2023-02-19T03:25:40;57688.72;;;-144.78;95.21
55994;BME280;67425;52.126;20.638;2023-02-19T03:28:20;57676.25;;;-144.78;94.18
55994;BME280;67425;52.126;20.638;2023-02-19T03:31:09;57667.94;;;-144.78;95.01
55994;BME280;67425;52.126;20.638;2023-02-19T03:33:37;57670.03;;;-144.78;94.61
55994;BME280;67425;52.126;20.638;2023-02-19T03:36:06;57717.78;;;-144.78;95.17
55994;BME280;67425;52.126;20.638;2023-02-19T03:38:58;57688.72;;;-144.78;95.41
55994;BME280;67425;52.126;20.638;2023-02-19T03:41:32;57684.56;;;-144.78;95.41
55994;BME280;67425;52.126;20.638;2023-02-19T03:48:59;57670.03;;;-144.78;94.60
55994;BME280;67425;52.126;20.638;2023-02-19T03:51:37;57680.41;;;-144.78;95.05
55994;BME280;67425;52.126;20.638;2023-02-19T03:57:11;57713.63;;;-144.78;95.34
55994;BME280;67425;52.126;20.638;2023-02-19T03:59:55;57682.50;;;-144.78;95.04
55994;BME280;67425;52.126;20.638;2023-02-19T04:02:56;57684.56;;;-144.78;95.21
55994;BME280;67425;52.126;20.638;2023-02-19T04:05:26;57676.25;;;-144.78;95.72
55994;BME280;67425;52.126;20.638;2023-02-19T04:07:56;57692.88;;;-144.78;95.88
55994;BME280;67425;52.126;20.638;2023-02-19T04:10:22;57661.72;;;-144.78;95.18
55994;BME280;67425;52.126;20.638;2023-02-19T04:13:01;57674.19;;;-144.78;95.11
55994;BME280;67425;52.126;20.638;2023-02-19T04:15:30;57670.03;;;-144.78;94.12
55994;BME280;67425;52.126;20.638;2023-02-19T04:18:00;57659.63;;;-144.78;94.60
55994;BME280;67425;52.126;20.638;2023-02-19T04:20:31;57663.78;;;-144.78;94.41
55994;BME280;67425;52.126;20.638;2023-02-19T04:22:58;57674.19;;;-144.78;95.32
55994;BME280;67425;52.126;20.638;2023-02-19T04:25:25;57709.50;;;-144.78;94.55
55994;BME280;67425;52.126;20.638;2023-02-19T04:27:51;57680.41;;;-144.78;94.82
55994;BME280;67425;52.126;20.638;2023-02-19T04:30:17;57653.41;;;-144.78;94.68
55994;BME280;67425;52.126;20.638;2023-02-19T04:32:42;57643.03;;;-144.78;94.45
55994;BME280;67425;52.126;20.638;2023-02-19T04:35:07;57674.19;;;-144.78;95.53
55994;BME280;67425;52.126;20.638;2023-02-19T04:37:33;57663.78;;;-144.78;94.92
55994;BME280;67425;52.126;20.638;2023-02-19T04:39:58;57703.25;;;-144.78;96.11
55994;BME280;67425;52.126;20.638;2023-02-19T04:42:24;57678.34;;;-144.78;96.14
55994;BME280;67425;52.126;20.638;2023-02-19T04:44:49;57684.56;;;-144.78;95.84
55994;BME280;67425;52.126;20.638;2023-02-19T04:47:14;57661.72;;;-144.78;96.60
55994;BME280;67425;52.126;20.638;2023-02-19T04:49:42;57665.88;;;-144.78;95.43
55994;BME280;67425;52.126;20.638;2023-02-19T04:52:07;57661.72;;;-144.78;94.91
55994;BME280;67425;52.126;20.638;2023-02-19T04:54:33;57678.34;;;-144.78;95.25
55994;BME280;67425;52.126;20.638;2023-02-19T04:56:58;57682.50;;;-144.78;94.85
55994;BME280;67425;52.126;20.638;2023-02-19T04:59:23;57663.78;;;-144.78;94.44
55994;BME280;67425;52.126;20.638;2023-02-19T05:01:48;57688.72;;;-144.78;94.53
55994;BME280;67425;52.126;20.638;2023-02-19T05:04:14;57649.25;;;-144.78;94.21
55994;BME280;67425;52.126;20.638;2023-02-19T05:06:39;57667.94;;;-144.78;95.08
55994;BME280;67425;52.126;20.638;2023-02-19T05:09:04;57665.88;;;-144.78;94.72
55994;BME280;67425;52.126;20.638;2023-02-19T05:11:30;57692.88;;;-144.78;95.23
55994;BME280;67425;52.126;20.638;2023-02-19T05:13:55;57674.19;;;-144.78;95.33
55994;BME280;67425;52.126;20.638;2023-02-19T05:16:21;57697.03;;;-144.78;95.29
55994;BME280;67425;52.126;20.638;2023-02-19T05:18:46;57661.72;;;-144.78;94.96
55994;BME280;67425;52.126;20.638;2023-02-19T05:21:12;57661.72;;;-144.78;94.52
55994;BME280;67425;52.126;20.638;2023-02-19T05:23:38;57661.72;;;-144.78;94.82
55994;BME280;67425;52.126;20.638;2023-02-19T05:26:05;57678.34;;;-144.78;94.88
55994;BME280;67425;52.126;20.638;2023-02-19T05:28:30;57674.19;;;-144.78;94.16
55994;BME280;67425;52.126;20.638;2023-02-19T05:30:56;57667.94;;;-144.78;93.68
55994;BME280;67425;52.126;20.638;2023-02-19T05:33:23;57657.56;;;-144.78;94.12
55994;BME280;67425;52.126;20.638;2023-02-19T05:35:51;57647.19;;;-144.78;93.88
55994;BME280;67425;52.126;20.638;2023-02-19T05:38:17;57667.94;;;-144.78;93.84
55994;BME280;67425;52.126;20.638;2023-02-19T05:40:44;57670.03;;;-144.78;94.06
55994;BME280;67425;52.126;20.638;2023-02-19T05:43:10;57670.03;;;-144.78;94.23
55994;BME280;67425;52.126;20.638;2023-02-19T05:45:36;57676.25;;;-144.78;94.30
55994;BME280;67425;52.126;20.638;2023-02-19T05:48:02;57665.88;;;-144.78;94.72
55994;BME280;67425;52.126;20.638;2023-02-19T05:50:28;57680.41;;;-144.78;94.60
55994;BME280;67425;52.126;20.638;2023-02-19T05:52:54;57665.88;;;-144.78;95.31
55994;BME280;67425;52.126;20.638;2023-02-19T05:55:19;57684.56;;;-144.78;96.00
55994;BME280;67425;52.126;20.638;2023-02-19T05:57:46;57682.50;;;-144.78;96.02
55994;BME280;67425;52.126;20.638;2023-02-19T06:00:14;57690.78;;;-144.78;95.88
55994;BME280;67425;52.126;20.638;2023-02-19T06:02:40;57670.03;;;-144.78;96.33
55994;BME280;67425;52.126;20.638;2023-02-19T06:05:06;57684.56;;;-144.78;95.63
55994;BME280;67425;52.126;20.638;2023-02-19T06:07:32;57667.94;;;-144.78;95.95
55994;BME280;67425;52.126;20.638;2023-02-19T06:09:57;57663.78;;;-144.78;95.97
55994;BME280;67425;52.126;20.638;2023-02-19T06:12:23;57680.41;;;-144.78;95.77
55994;BME280;67425;52.126;20.638;2023-02-19T06:14:48;57674.19;;;-144.78;96.17
55994;BME280;67425;52.126;20.638;2023-02-19T06:17:14;57699.09;;;-144.78;95.83
55994;BME280;67425;52.126;20.638;2023-02-19T06:19:39;57676.25;;;-144.78;95.60
55994;BME280;67425;52.126;20.638;2023-02-19T06:22:05;57690.78;;;-144.78;97.31
55994;BME280;67425;52.126;20.638;2023-02-19T06:24:30;57684.56;;;-144.78;95.85
55994;BME280;67425;52.126;20.638;2023-02-19T06:26:56;57672.09;;;-144.78;95.70
55994;BME280;67425;52.126;20.638;2023-02-19T06:29:21;57697.03;;;-144.78;95.69
55994;BME280;67425;52.126;20.638;2023-02-19T06:31:47;57670.03;;;-144.78;95.72
55994;BME280;67425;52.126;20.638;2023-02-19T06:34:12;57692.88;;;-144.78;95.55
55994;BME280;67425;52.126;20.638;2023-02-19T06:36:37;57690.78;;;-144.78;96.84
55994;BME280;67425;52.126;20.638;2023-02-19T06:39:04;57678.34;;;-144.78;96.68
55994;BME280;67425;52.126;20.638;2023-02-19T06:41:30;57651.34;;;-144.78;95.05
55994;BME280;67425;52.126;20.638;2023-02-19T06:43:56;57661.72;;;-144.78;96.11
55994;BME280;67425;52.126;20.638;2023-02-19T06:46:21;57686.63;;;-144.78;95.56
55994;BME280;67425;52.126;20.638;2023-02-19T06:48:47;57663.78;;;-144.78;95.97
55994;BME280;67425;52.126;20.638;2023-02-19T06:51:15;57670.03;;;-144.78;95.39
55994;BME280;67425;52.126;20.638;2023-02-19T06:53:43;57657.56;;;-144.78;95.37
55994;BME280;67425;52.126;20.638;2023-02-19T06:56:35;57682.50;;;-144.78;96.46
55994;BME280;67425;52.126;20.638;2023-02-19T06:59:04;57678.34;;;-144.78;96.85
55994;BME280;67425;52.126;20.638;2023-02-19T07:01:31;57667.94;;;-144.78;96.88
55994;BME280;67425;52.126;20.638;2023-02-19T07:03:57;57684.56;;;-144.78;97.08
55994;BME280;67425;52.126;20.638;2023-02-19T07:06:24;57670.03;;;-144.78;95.98
55994;BME280;67425;52.126;20.638;2023-02-19T07:08:51;57686.63;;;-144.78;96.69
55994;BME280;67425;52.126;20.638;2023-02-19T07:11:17;57676.25;;;-144.78;96.49
55994;BME280;67425;52.126;20.638;2023-02-19T07:13:43;57661.72;;;-144.78;96.62
55994;BME280;67425;52.126;20.638;2023-02-19T07:16:09;57701.19;;;-144.78;97.14
55994;BME280;67425;52.126;20.638;2023-02-19T07:18:35;57655.50;;;-144.78;97.60
55994;BME280;67425;52.126;20.638;2023-02-19T07:21:10;57701.19;;;-144.78;98.35
55994;BME280;67425;52.126;20.638;2023-02-19T07:23:36;57688.72;;;-144.78;97.93
55994;BME280;67425;52.126;20.638;2023-02-19T07:26:03;57705.34;;;-144.78;98.81
55994;BME280;67425;52.126;20.638;2023-02-19T07:28:28;57690.78;;;-144.78;97.26
55994;BME280;67425;52.126;20.638;2023-02-19T07:30:59;57713.63;;;-144.78;97.66
55994;BME280;67425;52.126;20.638;2023-02-19T07:33:24;57674.19;;;-144.78;98.42
55994;BME280;67425;52.126;20.638;2023-02-19T07:35:50;57667.94;;;-144.78;98.02
55994;BME280;67425;52.126;20.638;2023-02-19T07:38:16;57670.03;;;-144.78;97.34
55994;BME280;67425;52.126;20.638;2023-02-19T07:40:49;57667.94;;;-144.78;97.42
55994;BME280;67425;52.126;20.638;2023-02-19T07:43:15;57686.63;;;-144.78;97.80
55994;BME280;67425;52.126;20.638;2023-02-19T07:45:40;57670.03;;;-144.78;97.32
55994;BME280;67425;52.126;20.638;2023-02-19T07:48:05;57672.09;;;-144.78;96.84
55994;BME280;67425;52.126;20.638;2023-02-19T07:50:31;57667.94;;;-144.78;97.04
55994;BME280;67425;52.126;20.638;2023-02-19T07:52:56;57663.78;;;-144.78;96.58
55994;BME280;67425;52.126;20.638;2023-02-19T07:55:21;57682.50;;;-144.78;96.71
55994;BME280;67425;52.126;20.638;2023-02-19T07:57:47;57674.19;;;-144.78;97.40
55994;BME280;67425;52.126;20.638;2023-02-19T08:00:12;57697.03;;;-144.78;97.88
55994;BME280;67425;52.126;20.638;2023-02-19T08:02:38;57699.09;;;-144.78;96.66
55994;BME280;67425;52.126;20.638;2023-02-19T08:05:22;57649.25;;;-144.78;96.87
55994;BME280;67425;52.126;20.638;2023-02-19T08:07:47;57686.63;;;-144.78;97.91
55994;BME280;67425;52.126;20.638;2023-02-19T08:10:12;57667.94;;;-144.78;97.83
55994;BME280;67425;52.126;20.638;2023-02-19T08:12:57;57686.63;;;-144.78;97.07
55994;BME280;67425;52.126;20.638;2023-02-19T08:15:42;57663.78;;;-144.78;97.60
55994;BME280;67425;52.126;20.638;2023-02-19T08:18:08;57659.63;;;-144.78;97.58
55994;BME280;67425;52.126;20.638;2023-02-19T08:20:34;57678.34;;;-144.78;98.97
55994;BME280;67425;52.126;20.638;2023-02-19T08:23:00;57680.41;;;-144.78;98.24
55994;BME280;67425;52.126;20.638;2023-02-19T08:25:26;57630.56;;;-144.78;95.87
55994;BME280;67425;52.126;20.638;2023-02-19T08:27:51;57651.34;;;-144.78;96.97
55994;BME280;67425;52.126;20.638;2023-02-19T08:30:16;57676.25;;;-144.78;96.88
55994;BME280;67425;52.126;20.638;2023-02-19T08:32:42;57667.94;;;-144.78;96.76
55994;BME280;67425;52.126;20.638;2023-02-19T08:35:07;57655.50;;;-144.78;96.19
55994;BME280;67425;52.126;20.638;2023-02-19T08:37:32;57674.19;;;-144.78;96.27
55994;BME280;67425;52.126;20.638;2023-02-19T08:39:58;57657.56;;;-144.78;96.70
55994;BME280;67425;52.126;20.638;2023-02-19T08:42:23;57680.41;;;-144.78;96.95
55994;BME280;67425;52.126;20.638;2023-02-19T08:44:48;57663.78;;;-144.78;96.99
55994;BME280;67425;52.126;20.638;2023-02-19T08:47:14;57647.19;;;-144.78;96.50
55994;BME280;67425;52.126;20.638;2023-02-19T08:49:39;57638.88;;;-144.78;96.02
55994;BME280;67425;52.126;20.638;2023-02-19T08:52:04;57653.41;;;-144.78;96.82
55994;BME280;67425;52.126;20.638;2023-02-19T08:54:30;57634.72;;;-144.78;95.94
55994;BME280;67425;52.126;20.638;2023-02-19T08:56:55;57643.03;;;-144.78;95.18
55994;BME280;67425;52.126;20.638;2023-02-19T08:59:20;57649.25;;;-144.78;96.30
55994;BME280;67425;52.126;20.638;2023-02-19T09:01:46;57659.63;;;-144.78;94.44
55994;BME280;67425;52.126;20.638;2023-02-19T09:04:13;57649.25;;;-144.78;93.98
55994;BME280;67425;52.126;20.638;2023-02-19T09:06:38;57640.94;;;-144.78;93.54
55994;BME280;67425;52.126;20.638;2023-02-19T09:09:04;57655.50;;;-144.78;93.62
55994;BME280;67425;52.126;20.638;2023-02-19T09:11:29;57643.03;;;-144.78;93.97
55994;BME280;67425;52.126;20.638;2023-02-19T09:13:55;57645.09;;;-144.78;94.12
55994;BME280;67425;52.126;20.638;2023-02-19T09:16:21;57638.88;;;-144.78;92.50
55994;BME280;67425;52.126;20.638;2023-02-19T09:18:47;57624.34;;;-144.78;92.74
55994;BME280;67425;52.126;20.638;2023-02-19T09:21:12;57616.03;;;-144.78;92.53
55994;BME280;67425;52.126;20.638;2023-02-19T09:23:38;57622.25;;;-144.78;92.25
55994;BME280;67425;52.126;20.638;2023-02-19T09:26:04;57609.78;;;-144.78;91.38
55994;BME280;67425;52.126;20.638;2023-02-19T09:28:33;57601.50;;;-144.78;91.73
55994;BME280;67425;52.126;20.638;2023-02-19T09:31:06;57584.88;;;-144.78;90.11
55994;BME280;67425;52.126;20.638;2023-02-19T09:33:31;57616.03;;;-144.78;90.95
55994;BME280;67425;52.126;20.638;2023-02-19T09:35:58;57628.50;;;-144.78;90.44
55994;BME280;67425;52.126;20.638;2023-02-19T09:38:25;57603.56;;;-144.78;89.94
55994;BME280;67425;52.126;20.638;2023-02-19T09:40:50;57597.34;;;-144.78;90.43
55994;BME280;67425;52.126;20.638;2023-02-19T09:43:18;57609.78;;;-144.78;89.79
55994;BME280;67425;52.126;20.638;2023-02-19T09:45:45;57624.34;;;-144.78;90.90
55994;BME280;67425;52.126;20.638;2023-02-19T09:48:11;57609.78;;;-144.78;90.81
55994;BME280;67425;52.126;20.638;2023-02-19T09:50:42;57599.41;;;-144.78;90.44
55994;BME280;67425;52.126;20.638;2023-02-19T09:53:22;57618.09;;;-144.78;90.05
55994;BME280;67425;52.126;20.638;2023-02-19T09:55:49;57582.81;;;-144.78;90.95
55994;BME280;67425;52.126;20.638;2023-02-19T09:58:23;57626.41;;;-144.78;91.37
55994;BME280;67425;52.126;20.638;2023-02-19T10:00:52;57628.50;;;-144.78;90.51
55994;BME280;67425;52.126;20.638;2023-02-19T10:03:27;57611.88;;;-144.78;91.29
55994;BME280;67425;52.126;20.638;2023-02-19T10:06:01;57618.09;;;-144.78;89.72
55994;BME280;67425;52.126;20.638;2023-02-19T10:08:31;57653.41;;;-144.78;90.21
55994;BME280;67425;52.126;20.638;2023-02-19T10:10:59;57622.25;;;-144.78;89.31
55994;BME280;67425;52.126;20.638;2023-02-19T10:13:36;57651.34;;;-144.78;89.94
55994;BME280;67425;52.126;20.638;2023-02-19T10:16:06;57640.94;;;-144.78;90.60
55994;BME280;67425;52.126;20.638;2023-02-19T10:18:39;57613.94;;;-144.78;89.30
55994;BME280;67425;52.126;20.638;2023-02-19T10:21:07;57607.72;;;-144.78;87.73
55994;BME280;67425;52.126;20.638;2023-02-19T10:23:34;57605.66;;;-144.78;88.46
55994;BME280;67425;52.126;20.638;2023-02-19T10:25:59;57634.72;;;-144.78;86.78
55994;BME280;67425;52.126;20.638;2023-02-19T10:28:30;57613.94;;;-144.78;87.04
55994;BME280;67425;52.126;20.638;2023-02-19T10:31:00;57628.50;;;-144.78;88.06
55994;BME280;67425;52.126;20.638;2023-02-19T10:33:26;57626.41;;;-144.78;89.09
55994;BME280;67425;52.126;20.638;2023-02-19T10:36:03;57645.09;;;-144.78;88.62
55994;BME280;67425;52.126;20.638;2023-02-19T10:41:14;57622.25;;;-144.78;86.53
55994;BME280;67425;52.126;20.638;2023-02-19T10:43:44;57589.03;;;-144.78;84.49
55994;BME280;67425;52.126;20.638;2023-02-19T10:46:24;57611.88;;;-144.78;85.44
55994;BME280;67425;52.126;20.638;2023-02-19T10:48:53;57611.88;;;-144.78;86.83
55994;BME280;67425;52.126;20.638;2023-02-19T10:51:19;57584.88;;;-144.78;85.28
55994;BME280;67425;52.126;20.638;2023-02-19T10:53:50;57578.66;;;-144.78;84.29
55994;BME280;67425;52.126;20.638;2023-02-19T10:56:25;57651.34;;;-144.78;90.35
55994;BME280;67425;52.126;20.638;2023-02-19T10:58:51;57643.03;;;-144.78;91.01
55994;BME280;67425;52.126;20.638;2023-02-19T11:01:23;57622.25;;;-144.78;91.45
55994;BME280;67425;52.126;20.638;2023-02-19T11:04:15;57632.66;;;-144.78;88.13
55994;BME280;67425;52.126;20.638;2023-02-19T11:06:41;57653.41;;;-144.78;90.03
55994;BME280;67425;52.126;20.638;2023-02-19T11:09:23;57626.41;;;-144.78;88.83
55994;BME280;67425;52.126;20.638;2023-02-19T11:11:51;57630.56;;;-144.78;83.46
55994;BME280;67425;52.126;20.638;2023-02-19T11:14:19;57624.34;;;-144.78;85.54
55994;BME280;67425;52.126;20.638;2023-02-19T11:16:57;57601.50;;;-144.78;84.70
55994;BME280;67425;52.126;20.638;2023-02-19T11:19:37;57607.72;;;-144.78;82.18
55994;BME280;67425;52.126;20.638;2023-02-19T11:24:53;57591.09;;;-144.78;82.48
55994;BME280;67425;52.126;20.638;2023-02-19T11:27:24;57603.56;;;-144.78;80.49
55994;BME280;67425;52.126;20.638;2023-02-19T11:29:49;57593.19;;;-144.78;81.49
55994;BME280;67425;52.126;20.638;2023-02-19T11:32:27;57589.03;;;-144.78;82.55
55994;BME280;67425;52.126;20.638;2023-02-19T11:35:17;57613.94;;;-144.78;81.77
55994;BME280;67425;52.126;20.638;2023-02-19T11:37:54;57636.78;;;-144.78;82.37
55994;BME280;67425;52.126;20.638;2023-02-19T11:46:18;57599.41;;;-144.78;80.24
55994;BME280;67425;52.126;20.638;2023-02-19T11:51:45;57609.78;;;-144.78;80.13
55994;BME280;67425;52.126;20.638;2023-02-19T11:54:20;57586.94;;;-144.78;81.40
55994;BME280;67425;52.126;20.638;2023-02-19T11:57:07;57593.19;;;-144.78;82.55
55994;BME280;67425;52.126;20.638;2023-02-19T12:07:56;57607.72;;;-144.78;83.15
55994;BME280;67425;52.126;20.638;2023-02-19T12:17:07;57643.03;;;-144.78;83.62
55994;BME280;67425;52.126;20.638;2023-02-19T12:27:04;57599.41;;;-144.78;80.22
55994;BME280;67425;52.126;20.638;2023-02-19T12:29:46;57586.94;;;-144.78;80.51
55994;BME280;67425;52.126;20.638;2023-02-19T12:37:49;57638.88;;;-144.78;83.29
55994;BME280;67425;52.126;20.638;2023-02-19T12:41:28;57601.50;;;-144.78;81.15
55994;BME280;67425;52.126;20.638;2023-02-19T12:43:22;57622.25;;;-144.78;83.22
55994;BME280;67425;52.126;20.638;2023-02-19T12:45:57;57638.88;;;-144.78;82.79
55994;BME280;67425;52.126;20.638;2023-02-19T12:50:55;57632.66;;;-144.78;83.07
55994;BME280;67425;52.126;20.638;2023-02-19T12:53:55;57605.66;;;-144.78;82.71
55994;BME280;67425;52.126;20.638;2023-02-19T12:56:36;57584.88;;;-144.78;82.24
55994;BME280;67425;52.126;20.638;2023-02-19T12:59:13;57640.94;;;-144.78;82.74
55994;BME280;67425;52.126;20.638;2023-02-19T13:01:51;57620.19;;;-144.78;83.33
55994;BME280;67425;52.126;20.638;2023-02-19T13:07:23;57622.25;;;-144.78;83.48
55994;BME280;67425;52.126;20.638;2023-02-19T13:09:56;57574.50;;;-144.78;81.34
55994;BME280;67425;52.126;20.638;2023-02-19T13:12:26;57611.88;;;-144.78;82.27
55994;BME280;67425;52.126;20.638;2023-02-19T13:14:59;57620.19;;;-144.78;82.01
55994;BME280;67425;52.126;20.638;2023-02-19T13:17:52;57620.19;;;-144.78;81.61
55994;BME280;67425;52.126;20.638;2023-02-19T13:20:29;57605.66;;;-144.78;81.68
55994;BME280;67425;52.126;20.638;2023-02-19T13:34:02;57580.72;;;-144.78;81.23
55994;BME280;67425;52.126;20.638;2023-02-19T13:36:30;57582.81;;;-144.78;80.80
55994;BME280;67425;52.126;20.638;2023-02-19T13:38:56;57580.72;;;-144.78;80.40
55994;BME280;67425;52.126;20.638;2023-02-19T13:41:29;57555.81;;;-144.78;81.07
55994;BME280;67425;52.126;20.638;2023-02-19T13:44:01;57572.41;;;-144.78;79.70
55994;BME280;67425;52.126;20.638;2023-02-19T13:46:39;57549.56;;;-144.78;80.01
55994;BME280;67425;52.126;20.638;2023-02-19T13:51:50;57551.66;;;-144.78;78.68
55994;BME280;67425;52.126;20.638;2023-02-19T13:54:22;57576.56;;;-144.78;75.78
55994;BME280;67425;52.126;20.638;2023-02-19T13:56:49;57557.88;;;-144.78;76.05
55994;BME280;67425;52.126;20.638;2023-02-19T14:14:35;57582.81;;;-144.78;74.55
55994;BME280;67425;52.126;20.638;2023-02-19T14:28:15;57607.72;;;-144.78;72.92
55994;BME280;67425;52.126;20.638;2023-02-19T14:30:53;57599.41;;;-144.78;73.62
55994;BME280;67425;52.126;20.638;2023-02-19T14:33:43;57618.09;;;-144.78;74.25
55994;BME280;67425;52.126;20.638;2023-02-19T14:36:26;57578.66;;;-144.78;74.61
55994;BME280;67425;52.126;20.638;2023-02-19T14:41:19;57586.94;;;-144.78;74.26